DW3648 Granada ES current weather conditions

sailwx.info

Wind from 151

Air temperature 18.3° C
Dewpoint 15.0° C

Last reported at 2019-Sep-22 01:00 UTC.
Time now 2019-Sep-22 01:32 UTC

Location: N 37°10' W 003°35'.
View on Google Maps.

See reports from other nearby stations

  
Tides and Currents Weather Stations Pressure Air Temp Water Temp Dewpoint Dewpoint Depression Visibility Wind Speed Wind Dir Waves Ship Positions
date/time (UTC)wind fromknots sea level pressurealtimeterstation pressurevisibilityair tempwater tempwave heightnotes
2019-Sep-22 01:00 151 18.3
2019-Sep-22 00:46 151 18.3
2019-Sep-22 00:31 157 0 gusting 3 18.3
2019-Sep-22 00:15 266 18.9
2019-Sep-22 00:01 267 18.9
2019-Sep-21 23:46 267 19.4
2019-Sep-21 23:30 266 19.4
2019-Sep-21 23:16 266 19.4
2019-Sep-21 23:00 266 0 gusting 5 20.0
2019-Sep-21 22:45 013 20.0
2019-Sep-21 22:31 014 20.0
2019-Sep-21 22:16 013 20.0
2019-Sep-21 22:00 049 20.0
2019-Sep-21 21:45 288 20.0
2019-Sep-21 21:30 288 20.0
2019-Sep-21 21:15 288 20.6
2019-Sep-21 21:00 288 20.6
2019-Sep-21 20:45 288 20.6
2019-Sep-21 20:30 288 0 gusting 3 21.1
2019-Sep-21 20:15 288 21.1
2019-Sep-21 20:01 288 1 gusting 6 21.1
2019-Sep-21 19:45 290 21.1
2019-Sep-21 19:30 235 3 gusting 6 21.7
2019-Sep-21 19:15 320 0 gusting 5 21.7
2019-Sep-21 19:00 297 21.7
2019-Sep-21 18:45 263 1 gusting 6 22.2
2019-Sep-21 18:30 295 2 gusting 8 22.2
2019-Sep-21 18:15 296 1 gusting 6 22.2
2019-Sep-21 18:00 305 22.2
2019-Sep-21 17:45 319 3 gusting 5 22.8
2019-Sep-21 17:30 270 0 gusting 6 22.8
2019-Sep-21 17:15 301 22.8
2019-Sep-21 17:00 313 22.8
2019-Sep-21 16:45 292 1 gusting 6 23.3
2019-Sep-21 16:30 355 4 gusting 11 23.3
2019-Sep-21 16:15 287 5 gusting 8 23.9
2019-Sep-21 16:00 285 23.9
2019-Sep-21 15:45 267 2 gusting 5 24.4
2019-Sep-21 15:30 271 2 gusting 6 24.4
2019-Sep-21 15:15 236 3 gusting 7 24.4
2019-Sep-21 15:00 232 2 gusting 6 25.0
2019-Sep-21 14:45 203 1 gusting 5 25.0
2019-Sep-21 14:30 246 0 gusting 4 25.0
2019-Sep-21 14:15 159 1 gusting 6 25.6
2019-Sep-21 14:00 106 2 gusting 7 25.6
2019-Sep-21 13:46 210 1 gusting 6 25.0
2019-Sep-21 13:32 167 3 gusting 6 25.6
2019-Sep-21 13:16 213 6 gusting 10 25.6
2019-Sep-21 13:02 291 0 gusting 8 25.6
2019-Sep-21 12:46 180 2 gusting 9 25.6
2019-Sep-21 12:31 194 3 gusting 9 25.0
2019-Sep-21 12:18 180 5 gusting 8 24.4
2019-Sep-21 12:01 173 3 gusting 9 23.9
2019-Sep-21 11:46 225 5 gusting 11 23.3
2019-Sep-21 11:32 205 3 gusting 11 23.3
2019-Sep-21 11:16 194 1 gusting 8 23.3
2019-Sep-21 11:01 177 4 gusting 10 23.9
2019-Sep-21 10:45 172 1 gusting 6 23.3
2019-Sep-21 10:31 234 6 gusting 13 23.3
2019-Sep-21 10:16 199 4 gusting 12 23.3
2019-Sep-21 10:01 245 22.8
2019-Sep-21 09:46 299 0 gusting 5 22.8
2019-Sep-21 09:30 279 0 gusting 5 22.2
2019-Sep-21 09:15 348 1 gusting 4 21.7
2019-Sep-21 09:01 216 21.1
2019-Sep-21 08:45 216 21.1
2019-Sep-21 08:31 216 20.6
2019-Sep-21 08:15 216 20.0
2019-Sep-21 08:00 216 20.0
2019-Sep-21 07:45 216 20.0
2019-Sep-21 07:30 214 19.4
2019-Sep-21 07:15 089 18.9
2019-Sep-21 07:00 089 18.3
2019-Sep-21 06:45 089 18.3
2019-Sep-21 06:30 089 18.3
2019-Sep-21 06:15 096 1 gusting 4 18.3
2019-Sep-21 06:00 113 17.8
2019-Sep-21 05:45 113 17.8
2019-Sep-21 05:30 113 17.8
2019-Sep-21 05:15 113 17.8
2019-Sep-21 05:00 115 1 gusting 5 17.8
2019-Sep-21 04:45 106 0 gusting 4 17.8
2019-Sep-21 04:30 094 17.8
2019-Sep-21 04:15 110 18.3
2019-Sep-21 04:00 109 18.3
2019-Sep-21 03:45 109 18.3
2019-Sep-21 03:30 092 0 gusting 4 18.3
2019-Sep-21 03:15 112 18.3
2019-Sep-21 03:00 301 18.3
2019-Sep-21 02:45 300 18.9
2019-Sep-21 02:30 301 18.9
2019-Sep-21 02:15 300 18.9
2019-Sep-21 02:00 301 18.9
2019-Sep-21 01:47 301 18.9
2019-Sep-21 01:33 301 18.9
2019-Sep-21 01:16 322 18.9
2019-Sep-21 01:02 322 19.4
2019-Sep-21 00:47 024 19.4
2019-Sep-21 00:31 024 19.4
2019-Sep-21 00:17 024 19.4
2019-Sep-21 00:01 019 19.4
2019-Sep-20 23:47 322 20.0
2019-Sep-20 23:01 246 20.0
2019-Sep-20 22:46 242 0 gusting 3 20.6
2019-Sep-20 22:30 094 0 gusting 5 20.6
2019-Sep-20 22:16 211 20.0
2019-Sep-20 22:01 112 20.0
2019-Sep-20 18:16 337 22.2
2019-Sep-20 18:03 315 22.2
2019-Sep-20 17:46 327 2 gusting 6 22.2
2019-Sep-20 17:31 294 3 gusting 8 22.8
2019-Sep-20 17:16 292 4 gusting 9 22.8
2019-Sep-20 17:02 278 2 gusting 6 22.8
2019-Sep-20 16:46 256 3 gusting 8 22.8
2019-Sep-20 16:32 233 4 gusting 10 23.3
2019-Sep-20 16:17 232 1 gusting 6 23.9
2019-Sep-20 16:02 281 4 gusting 10 24.4
2019-Sep-20 15:46 298 24.4
2019-Sep-20 15:33 256 2 gusting 7 24.4
2019-Sep-20 15:16 267 2 gusting 6 25.0
2019-Sep-20 15:01 272 1 gusting 6 25.6
2019-Sep-20 14:46 238 3 gusting 6 25.6
2019-Sep-20 14:32 230 3 gusting 6 25.6
2019-Sep-20 14:16 196 3 gusting 10 26.1
2019-Sep-20 14:01 171 4 gusting 9 26.1
2019-Sep-20 13:46 156 2 gusting 8 26.7
2019-Sep-20 13:31 217 2 gusting 8 26.7
2019-Sep-20 13:16 163 2 gusting 8 27.2
2019-Sep-20 13:01 278 0 gusting 6 27.2
2019-Sep-20 12:46 253 26.7
2019-Sep-20 12:31 277 3 gusting 7 26.1
2019-Sep-20 12:17 307 4 gusting 8 26.7
2019-Sep-20 12:02 339 26.1
2019-Sep-20 11:46 207 1 gusting 4 26.1
2019-Sep-20 11:31 319 3 gusting 6 25.6
2019-Sep-20 11:16 301 25.0
2019-Sep-20 11:01 196 24.4
2019-Sep-20 10:46 232 2 gusting 6 23.3
2019-Sep-20 10:30 197 2 gusting 12 23.3
2019-Sep-20 10:16 292 2 gusting 10 23.9
2019-Sep-20 10:01 265 4 gusting 10 23.3
2019-Sep-20 09:46 243 1 gusting 8 23.9
2019-Sep-20 09:30 207 3 gusting 8 23.3
2019-Sep-20 09:15 290 23.3
2019-Sep-20 09:00 271 21.7
2019-Sep-20 08:45 285 1 gusting 4 21.7
2019-Sep-20 08:30 215 21.1
2019-Sep-20 08:15 214 20.6
2019-Sep-20 08:00 148 20.6
2019-Sep-20 07:45 137 20.6
2019-Sep-20 07:30 090 20.0
2019-Sep-20 07:15 090 0 gusting 1 18.9
2019-Sep-20 07:00 090 17.8
2019-Sep-20 06:45 090 17.2
2019-Sep-20 06:30 090 17.2
2019-Sep-20 06:15 090 1 gusting 4 16.7
2019-Sep-20 06:00 098 1 gusting 4 16.7
2019-Sep-20 05:45 103 0 gusting 3 16.7
2019-Sep-20 05:30 119 2 gusting 6 16.7
2019-Sep-20 05:15 097 0 gusting 5 16.7
2019-Sep-20 05:00 097 0 gusting 4 17.2
2019-Sep-20 04:46 096 0 gusting 1 17.2
2019-Sep-20 04:31 096 0 gusting 3 17.2
2019-Sep-20 04:16 097 17.2
2019-Sep-20 04:02 105 0 gusting 5 17.2
2019-Sep-20 03:47 110 17.2
2019-Sep-20 03:31 109 17.2
2019-Sep-20 03:16 110 17.2
2019-Sep-20 03:01 109 0 gusting 4 17.8
2019-Sep-20 02:46 093 17.8
2019-Sep-20 02:31 120 17.8
2019-Sep-20 02:16 092 18.3
2019-Sep-20 02:01 103 18.3
2019-Sep-20 01:46 107 18.3
2019-Sep-20 01:31 107 18.3
2019-Sep-20 01:16 107 18.3
2019-Sep-20 01:00 117 0 gusting 4 18.3